QAK007 MMMX-MMAA
Flight info
| Callsign | QAK007 |
|---|---|
| Flight time | 0h 32m |
| Altitude | 30000 |
| Route | TEVOS2B TEVOS UT116 ANALU ANALU1B |
| Aircraft | C750/M-SBDE3FGHRWXY/S |
Departure
| Time | 2026-05-05 23:25 |
|---|---|
| Airport | Mexico City Benito Juárez International Airport (MMMX) |
Arrival
| Time | 2026-05-05 23:57 |
|---|---|
| Airport | General Juan N. Álvarez International Airport (MMAA) |
| Time | Latitude | Longitude | Altitude | Speed | Heading |
|---|---|---|---|---|---|
| 2026-05-05 22:59 | 19.42491 | -99.07846 | 7299 ft | 0 kts | 207° |
| 2026-05-05 23:01 | 19.42499 | -99.07841 | 7299 ft | 4 kts | 207° |
| 2026-05-05 23:01 | 19.42502 | -99.07838 | 7299 ft | 1 kts | 183° |
| 2026-05-05 23:01 | 19.42506 | -99.07831 | 7299 ft | 4 kts | 35° |
| 2026-05-05 23:02 | 19.42556 | -99.07798 | 7299 ft | 7 kts | 28° |
| 2026-05-05 23:02 | 19.42611 | -99.07796 | 7299 ft | 10 kts | 349° |
| 2026-05-05 23:02 | 19.42674 | -99.07829 | 7299 ft | 9 kts | 324° |
| 2026-05-05 23:02 | 19.42721 | -99.07862 | 7299 ft | 8 kts | 327° |
| 2026-05-05 23:03 | 19.42775 | -99.07876 | 7299 ft | 8 kts | 25° |
| 2026-05-05 23:03 | 19.42811 | -99.07819 | 7299 ft | 13 kts | 59° |
| 2026-05-05 23:03 | 19.42864 | -99.07722 | 7299 ft | 15 kts | 60° |
| 2026-05-05 23:03 | 19.42910 | -99.07633 | 7299 ft | 13 kts | 64° |
| 2026-05-05 23:04 | 19.42950 | -99.07557 | 7299 ft | 11 kts | 58° |
| 2026-05-05 23:04 | 19.42986 | -99.07496 | 7299 ft | 9 kts | 59° |
| 2026-05-05 23:04 | 19.42986 | -99.07464 | 7299 ft | 4 kts | 131° |
| 2026-05-05 23:04 | 19.42961 | -99.07448 | 7299 ft | 2 kts | 142° |
| 2026-05-05 23:05 | 19.42963 | -99.07428 | 7299 ft | 6 kts | 68° |
| 2026-05-05 23:05 | 19.42976 | -99.07398 | 7299 ft | 1 kts | 101° |
| 2026-05-05 23:05 | 19.42967 | -99.07405 | 7299 ft | 1 kts | 241° |
| 2026-05-05 23:15 | 19.42967 | -99.07407 | 7299 ft | 1 kts | 241° |
| 2026-05-05 23:15 | 19.42955 | -99.07428 | 7299 ft | 5 kts | 241° |
| 2026-05-05 23:16 | 19.42964 | -99.07451 | 7299 ft | 5 kts | 332° |
| 2026-05-05 23:16 | 19.42989 | -99.07485 | 7299 ft | 4 kts | 246° |
| 2026-05-05 23:16 | 19.42961 | -99.07540 | 7299 ft | 11 kts | 240° |
| 2026-05-05 23:16 | 19.42923 | -99.07609 | 7299 ft | 11 kts | 239° |
| 2026-05-05 23:17 | 19.42886 | -99.07678 | 7299 ft | 11 kts | 244° |
| 2026-05-05 23:17 | 19.42850 | -99.07744 | 7299 ft | 10 kts | 238° |
| 2026-05-05 23:17 | 19.42816 | -99.07809 | 7299 ft | 10 kts | 240° |
| 2026-05-05 23:17 | 19.42837 | -99.07845 | 7299 ft | 5 kts | 4° |
| 2026-05-05 23:18 | 19.42867 | -99.07832 | 7299 ft | 5 kts | 29° |
| 2026-05-05 23:18 | 19.42895 | -99.07815 | 7299 ft | 5 kts | 28° |
| 2026-05-05 23:18 | 19.42923 | -99.07798 | 7299 ft | 5 kts | 33° |
| 2026-05-05 23:18 | 19.42954 | -99.07771 | 7299 ft | 9 kts | 43° |
| 2026-05-05 23:19 | 19.42999 | -99.07699 | 7299 ft | 15 kts | 59° |
| 2026-05-05 23:19 | 19.43073 | -99.07569 | 7299 ft | 25 kts | 59° |
| 2026-05-05 23:19 | 19.43167 | -99.07402 | 7299 ft | 25 kts | 59° |
| 2026-05-05 23:19 | 19.43252 | -99.07249 | 7299 ft | 23 kts | 74° |
| 2026-05-05 23:20 | 19.43273 | -99.07094 | 7299 ft | 20 kts | 69° |
| 2026-05-05 23:20 | 19.43340 | -99.06974 | 7299 ft | 18 kts | 59° |
| 2026-05-05 23:20 | 19.43399 | -99.06869 | 7299 ft | 16 kts | 59° |
| 2026-05-05 23:20 | 19.43439 | -99.06777 | 7299 ft | 11 kts | 46° |
| 2026-05-05 23:21 | 19.43500 | -99.06730 | 7299 ft | 13 kts | 25° |
| 2026-05-05 23:21 | 19.43591 | -99.06660 | 7299 ft | 21 kts | 61° |
| 2026-05-05 23:21 | 19.43667 | -99.06524 | 7299 ft | 21 kts | 59° |
| 2026-05-05 23:21 | 19.43740 | -99.06392 | 7299 ft | 23 kts | 59° |
| 2026-05-05 23:22 | 19.43823 | -99.06237 | 7299 ft | 23 kts | 62° |
| 2026-05-05 23:22 | 19.43902 | -99.06101 | 7299 ft | 21 kts | 58° |
| 2026-05-05 23:22 | 19.43971 | -99.05980 | 7299 ft | 18 kts | 59° |
| 2026-05-05 23:22 | 19.44031 | -99.05870 | 7299 ft | 16 kts | 60° |
| 2026-05-05 23:23 | 19.44093 | -99.05759 | 7299 ft | 20 kts | 60° |
| 2026-05-05 23:23 | 19.44175 | -99.05656 | 7299 ft | 14 kts | 359° |
| 2026-05-05 23:23 | 19.44203 | -99.05713 | 7299 ft | 10 kts | 290° |
| 2026-05-05 23:23 | 19.44249 | -99.05791 | 7298 ft | 11 kts | 337° |
| 2026-05-05 23:24 | 19.44255 | -99.05814 | 7298 ft | 4 kts | 245° |
| 2026-05-05 23:24 | 19.44230 | -99.05857 | 7298 ft | 31 kts | 239° |
| 2026-05-05 23:24 | 19.43930 | -99.06390 | 7299 ft | 131 kts | 239° |
| 2026-05-05 23:24 | 19.43395 | -99.07350 | 7599 ft | 158 kts | 243° |
| 2026-05-05 23:25 | 19.42821 | -99.08431 | 8427 ft | 173 kts | 243° |
| 2026-05-05 23:25 | 19.42278 | -99.09553 | 9256 ft | 171 kts | 241° |
| 2026-05-05 23:25 | 19.41934 | -99.10211 | 9458 ft | 174 kts | 240° |
| 2026-05-05 23:26 | 19.41323 | -99.11342 | 10111 ft | 178 kts | 240° |
| 2026-05-05 23:26 | 19.40683 | -99.12536 | 10480 ft | 200 kts | 241° |
| 2026-05-05 23:26 | 19.39952 | -99.13913 | 10703 ft | 230 kts | 241° |
| 2026-05-05 23:26 | 19.39121 | -99.15476 | 11052 ft | 257 kts | 241° |
| 2026-05-05 23:27 | 19.38098 | -99.17139 | 11338 ft | 285 kts | 228° |
| 2026-05-05 23:27 | 19.36329 | -99.18240 | 11667 ft | 309 kts | 194° |
| 2026-05-05 23:27 | 19.34205 | -99.18164 | 12584 ft | 310 kts | 164° |
| 2026-05-05 23:27 | 19.32371 | -99.16981 | 13338 ft | 314 kts | 133° |
| 2026-05-05 23:28 | 19.31220 | -99.15025 | 14191 ft | 314 kts | 114° |
| 2026-05-05 23:28 | 19.30379 | -99.12893 | 14992 ft | 316 kts | 110° |
| 2026-05-05 23:28 | 19.29221 | -99.10891 | 15603 ft | 327 kts | 133° |
| 2026-05-05 23:28 | 19.27261 | -99.09669 | 16387 ft | 331 kts | 159° |
| 2026-05-05 23:29 | 19.24999 | -99.09143 | 17153 ft | 338 kts | 169° |
| 2026-05-05 23:29 | 19.22590 | -99.08759 | 17343 ft | 362 kts | 170° |
| 2026-05-05 23:29 | 19.20037 | -99.08265 | 17647 ft | 379 kts | 167° |
| 2026-05-05 23:29 | 19.17460 | -99.07678 | 18488 ft | 380 kts | 166° |
| 2026-05-05 23:30 | 19.14854 | -99.07122 | 19145 ft | 384 kts | 168° |
| 2026-05-05 23:30 | 19.13108 | -99.06779 | 19601 ft | 386 kts | 168° |
| 2026-05-05 23:30 | 19.09558 | -99.06073 | 20526 ft | 391 kts | 167° |
| 2026-05-05 23:30 | 19.06879 | -99.05508 | 21278 ft | 394 kts | 167° |
| 2026-05-05 23:31 | 19.04175 | -99.04942 | 22017 ft | 398 kts | 167° |
| 2026-05-05 23:31 | 19.02370 | -99.04574 | 22516 ft | 400 kts | 168° |
| 2026-05-05 23:31 | 18.99619 | -99.04015 | 23244 ft | 405 kts | 167° |
| 2026-05-05 23:31 | 18.96837 | -99.03444 | 23905 ft | 409 kts | 167° |
| 2026-05-05 23:32 | 18.94036 | -99.02863 | 24541 ft | 412 kts | 167° |
| 2026-05-05 23:32 | 18.91209 | -99.02281 | 25170 ft | 416 kts | 168° |
| 2026-05-05 23:32 | 18.88354 | -99.01698 | 25786 ft | 420 kts | 168° |
| 2026-05-05 23:32 | 18.85478 | -99.01108 | 26415 ft | 423 kts | 168° |
| 2026-05-05 23:33 | 18.82573 | -99.00510 | 27024 ft | 427 kts | 168° |
| 2026-05-05 23:33 | 18.79645 | -98.99909 | 27657 ft | 431 kts | 168° |
| 2026-05-05 23:33 | 18.76689 | -98.99303 | 28258 ft | 435 kts | 168° |
| 2026-05-05 23:33 | 18.73707 | -98.98692 | 28837 ft | 439 kts | 168° |
| 2026-05-05 23:34 | 18.70694 | -98.98074 | 29404 ft | 443 kts | 168° |
| 2026-05-05 23:34 | 18.67646 | -98.97449 | 29752 ft | 452 kts | 168° |
| 2026-05-05 23:34 | 18.64503 | -98.96805 | 29710 ft | 469 kts | 168° |
| 2026-05-05 23:34 | 18.61246 | -98.96138 | 29688 ft | 484 kts | 168° |
| 2026-05-05 23:35 | 18.57895 | -98.95453 | 29688 ft | 498 kts | 168° |
| 2026-05-05 23:35 | 18.54449 | -98.94747 | 29684 ft | 511 kts | 168° |
| 2026-05-05 23:35 | 18.50922 | -98.94026 | 29682 ft | 522 kts | 168° |
| 2026-05-05 23:35 | 18.47311 | -98.93424 | 29655 ft | 530 kts | 174° |
| 2026-05-05 23:36 | 18.39880 | -98.93901 | 29660 ft | 542 kts | 191° |
| 2026-05-05 23:36 | 18.32723 | -98.96432 | 29678 ft | 543 kts | 200° |
| 2026-05-05 23:37 | 18.25687 | -98.99283 | 29688 ft | 541 kts | 200° |
| 2026-05-05 23:37 | 18.18707 | -99.02109 | 29687 ft | 532 kts | 200° |
| 2026-05-05 23:38 | 18.11907 | -99.04864 | 29694 ft | 523 kts | 200° |
| 2026-05-05 23:38 | 18.05151 | -99.07593 | 29701 ft | 518 kts | 200° |
| 2026-05-05 23:39 | 17.98454 | -99.10302 | 29720 ft | 513 kts | 200° |
| 2026-05-05 23:39 | 17.91820 | -99.12977 | 29737 ft | 508 kts | 200° |
| 2026-05-05 23:40 | 17.88514 | -99.14312 | 29394 ft | 514 kts | 200° |
| 2026-05-05 23:40 | 17.85130 | -99.15676 | 28592 ft | 527 kts | 200° |
| 2026-05-05 23:40 | 17.81705 | -99.17057 | 27662 ft | 522 kts | 199° |
| 2026-05-05 23:40 | 17.78358 | -99.18408 | 27025 ft | 508 kts | 200° |
| 2026-05-05 23:41 | 17.75114 | -99.19715 | 26609 ft | 492 kts | 199° |
| 2026-05-05 23:41 | 17.71953 | -99.20986 | 25950 ft | 484 kts | 199° |
| 2026-05-05 23:41 | 17.68796 | -99.22254 | 24866 ft | 492 kts | 199° |
| 2026-05-05 23:41 | 17.65603 | -99.23576 | 23509 ft | 494 kts | 201° |
| 2026-05-05 23:42 | 17.62565 | -99.25272 | 22361 ft | 493 kts | 208° |
| 2026-05-05 23:42 | 17.59615 | -99.27020 | 21896 ft | 483 kts | 207° |
| 2026-05-05 23:42 | 17.56671 | -99.28684 | 21248 ft | 480 kts | 206° |
| 2026-05-05 23:42 | 17.53734 | -99.30350 | 20550 ft | 480 kts | 207° |
| 2026-05-05 23:43 | 17.50843 | -99.32045 | 19813 ft | 471 kts | 207° |
| 2026-05-05 23:43 | 17.47900 | -99.33464 | 18896 ft | 462 kts | 198° |
| 2026-05-05 23:43 | 17.44869 | -99.34465 | 18201 ft | 450 kts | 195° |
| 2026-05-05 23:43 | 17.41910 | -99.35420 | 17730 ft | 440 kts | 195° |
| 2026-05-05 23:44 | 17.38974 | -99.36390 | 17097 ft | 445 kts | 195° |
| 2026-05-05 23:44 | 17.36012 | -99.37358 | 16459 ft | 448 kts | 195° |
| 2026-05-05 23:44 | 17.33023 | -99.38321 | 15820 ft | 450 kts | 195° |
| 2026-05-05 23:44 | 17.30027 | -99.39287 | 15182 ft | 451 kts | 195° |
| 2026-05-05 23:45 | 17.27067 | -99.40254 | 14545 ft | 441 kts | 195° |
| 2026-05-05 23:45 | 17.24140 | -99.41208 | 13920 ft | 440 kts | 195° |
| 2026-05-05 23:45 | 17.21217 | -99.42153 | 13260 ft | 439 kts | 195° |
| 2026-05-05 23:45 | 17.18307 | -99.43094 | 12630 ft | 436 kts | 195° |
| 2026-05-05 23:46 | 17.15456 | -99.44019 | 12017 ft | 434 kts | 196° |
| 2026-05-05 23:46 | 17.12669 | -99.44926 | 11406 ft | 404 kts | 196° |
| 2026-05-05 23:46 | 17.10078 | -99.45766 | 10855 ft | 378 kts | 196° |
| 2026-05-05 23:46 | 17.07829 | -99.46493 | 10203 ft | 347 kts | 196° |
| 2026-05-05 23:47 | 17.06062 | -99.47067 | 9607 ft | 312 kts | 197° |
| 2026-05-05 23:47 | 17.03990 | -99.47735 | 9113 ft | 310 kts | 196° |
| 2026-05-05 23:47 | 17.01951 | -99.48391 | 8708 ft | 303 kts | 197° |
| 2026-05-05 23:47 | 16.99957 | -99.49038 | 8311 ft | 298 kts | 197° |
| 2026-05-05 23:48 | 16.97992 | -99.49675 | 7922 ft | 294 kts | 197° |
| 2026-05-05 23:48 | 16.96046 | -99.50305 | 7495 ft | 292 kts | 197° |
| 2026-05-05 23:48 | 16.94104 | -99.50931 | 7044 ft | 291 kts | 197° |
| 2026-05-05 23:48 | 16.92203 | -99.51545 | 6657 ft | 277 kts | 197° |
| 2026-05-05 23:49 | 16.90390 | -99.52131 | 6281 ft | 269 kts | 197° |
| 2026-05-05 23:49 | 16.88646 | -99.52695 | 5915 ft | 256 kts | 197° |
| 2026-05-05 23:49 | 16.86985 | -99.53232 | 5580 ft | 244 kts | 198° |
| 2026-05-05 23:49 | 16.85394 | -99.53745 | 5280 ft | 235 kts | 198° |
| 2026-05-05 23:50 | 16.83848 | -99.54246 | 4991 ft | 231 kts | 199° |
| 2026-05-05 23:50 | 16.82323 | -99.54737 | 4714 ft | 228 kts | 199° |
| 2026-05-05 23:50 | 16.80813 | -99.55223 | 4433 ft | 226 kts | 199° |
| 2026-05-05 23:50 | 16.79314 | -99.55708 | 4154 ft | 224 kts | 200° |
| 2026-05-05 23:51 | 16.77833 | -99.56188 | 3886 ft | 222 kts | 200° |
| 2026-05-05 23:51 | 16.76376 | -99.56680 | 3620 ft | 218 kts | 201° |
| 2026-05-05 23:51 | 16.74940 | -99.57173 | 3347 ft | 216 kts | 201° |
| 2026-05-05 23:51 | 16.73522 | -99.57654 | 3093 ft | 214 kts | 201° |
| 2026-05-05 23:52 | 16.72232 | -99.58355 | 2767 ft | 206 kts | 224° |
| 2026-05-05 23:52 | 16.71455 | -99.59548 | 2547 ft | 193 kts | 248° |
| 2026-05-05 23:52 | 16.71269 | -99.60860 | 2333 ft | 176 kts | 274° |
| 2026-05-05 23:52 | 16.71551 | -99.61968 | 2159 ft | 142 kts | 284° |
| 2026-05-05 23:53 | 16.71818 | -99.62870 | 1991 ft | 120 kts | 284° |
| 2026-05-05 23:53 | 16.72048 | -99.63639 | 1844 ft | 103 kts | 284° |
| 2026-05-05 23:53 | 16.72260 | -99.64314 | 1724 ft | 96 kts | 284° |
| 2026-05-05 23:53 | 16.72467 | -99.64984 | 1619 ft | 106 kts | 284° |
| 2026-05-05 23:54 | 16.72718 | -99.65793 | 1475 ft | 124 kts | 285° |
| 2026-05-05 23:54 | 16.72989 | -99.66663 | 1312 ft | 128 kts | 286° |
| 2026-05-05 23:54 | 16.73261 | -99.67536 | 1144 ft | 121 kts | 287° |
| 2026-05-05 23:54 | 16.73514 | -99.68344 | 1002 ft | 115 kts | 287° |
| 2026-05-05 23:55 | 16.73765 | -99.69148 | 857 ft | 118 kts | 285° |
| 2026-05-05 23:55 | 16.74026 | -99.69977 | 709 ft | 122 kts | 283° |
| 2026-05-05 23:55 | 16.74288 | -99.70841 | 588 ft | 127 kts | 283° |
| 2026-05-05 23:55 | 16.74572 | -99.71706 | 405 ft | 125 kts | 284° |
| 2026-05-05 23:56 | 16.74844 | -99.72564 | 200 ft | 125 kts | 281° |
| 2026-05-05 23:56 | 16.75097 | -99.73418 | 67 ft | 121 kts | 281° |
| 2026-05-05 23:56 | 16.75339 | -99.74190 | 21 ft | 101 kts | 279° |
| 2026-05-05 23:56 | 16.75508 | -99.74738 | 18 ft | 53 kts | 288° |
| 2026-05-05 23:57 | 16.75646 | -99.75005 | 16 ft | 35 kts | 319° |
| 2026-05-05 23:57 | 16.75782 | -99.75087 | 17 ft | 21 kts | 334° |
| 2026-05-05 23:57 | 16.75904 | -99.75140 | 17 ft | 12 kts | 338° |
| 2026-05-05 23:57 | 16.75980 | -99.75175 | 17 ft | 11 kts | 340° |
| 2026-05-05 23:58 | 16.76021 | -99.75140 | 19 ft | 8 kts | 66° |
| 2026-05-05 23:58 | 16.76042 | -99.75098 | 18 ft | 1 kts | 14° |
| 2026-05-05 23:58 | 16.76057 | -99.75116 | 18 ft | 7 kts | 280° |
| 2026-05-05 23:58 | 16.76048 | -99.75143 | 17 ft | 0 kts | 246° |